Skip Navigation Links
NOAA logo - Click to go to the NOAA homepage
NOAA's National Weather Service
Alaska Aviation Weather Unit
  NWS logo - Click to go to the NWS homepage
Left Navbar Graphic     09 AKDT = 17 GMT

   
NOAA is celebrating 200 years of science, service, and stewardship. Visit the NOAA 200th celebration Web site to learn more.
USA.gov is the U.S. Government's official Web portal to all Federal, state and local government Web resources and services.
Facebook
NWS on Facebook

Important Change Regarding the AAWU Web Presence

 

Over the last several months, the AAWU has been working to navigate its webpages to a nationally supported server. Security, as well as other needs, have necessitated the change.  In the process, we have made an effort to enhance the functionality of our website, as well as some of our products. As of June 20, 2017, aawu.arh.noaa.gov will be discontinued. The new AAWU web address is weather.gov/aawu. It is now live and will run in-parallel with the old site until it is discontinued. Please send any feedback or questions regarding the new webpages to nws.ar.aawu.webauthors@noaa.gov.  Thank you for your patience during this time of transition.
AAWU Home :: Display TAF Add Bookmark
METAR PAPH 271156Z AUTO 00000KT 10SM -RA BKN028 OVC034 04/03 A2989 RMK
     AO2 SLP124 P0001 60003 70005 T00390033 10061 20033 56002=

PAPH 271203Z AUTO 00000KT 10SM -RA SCT024 OVC032 04/03 A2988 RMK
     AO2 P0001=

SPECI PAPH 271228Z AUTO 00000KT 10SM -RA BKN022 OVC036 04/03 A2988
 RMK AO2 P0001=

METAR PAPH 271256Z AUTO 00000KT 10SM -RA OVC022 04/03 A2988 RMK AO2
     SLP123 P0001 T00390033=

SPECI PAPH 271331Z AUTO 01004KT 10SM -RA FEW024 BKN030 BKN036 03/03
     A2988 RMK AO2 P0000=

METAR PAPH 271356Z AUTO 33003KT 10SM -RA FEW030 BKN037 OVC049 03/03
     A2987 RMK AO2 SLP119 P0000 T00330028=

METAR PAPH 271456Z AUTO 02003KT 10SM SCT032 BKN039 BKN055 03/02
 A2987 RMK AO2 RAE47UPB14E19 SLP117 P0001 60002 T00280022 56006=

METAR PAPH 271556Z AUTO 00000KT 10SM FEW029 BKN035 04/03 A2987 RMK AO2
     SLP116 T00390033=

METAR PAPH 271656Z AUTO 00000KT 10SM BKN033 06/03 A2987 RMK AO2 SLP117
     T00610033=

SPECI PAPH 271707Z AUTO 00000KT 10SM FEW008 BKN033 06/04 A2987 RMK
     AO2=


NOAA's National Weather Service
Alaska Aviation Weather Unit
6930 Sand Lake Road
Anchorage, AK 99502-1845
Disclaimer
Credits
Glossary
Privacy Policy
About Us
Career Opportunities
Contact AAWU Internet Services Site last modified: April, 17th 2012